createdAt,value
2018-10-12T00:02:21.723Z,397.63
2018-10-12T00:04:53.447Z,387.08
2018-10-12T00:07:23.946Z,391.55
2018-10-12T00:09:54.353Z,382.25
2018-10-12T00:12:24.702Z,390.15
2018-10-12T00:14:54.994Z,383.32
2018-10-12T00:17:25.330Z,378.07
2018-10-12T00:19:55.670Z,370.57
2018-10-12T00:22:25.974Z,359.98
2018-10-12T00:24:56.293Z,364.88
2018-10-12T00:27:26.634Z,357.18
2018-10-12T00:29:57.043Z,350.90
2018-10-12T00:32:27.454Z,344.15
2018-10-12T00:34:57.846Z,340.98
2018-10-12T00:37:28.192Z,338.20
2018-10-12T00:39:58.542Z,330.45
2018-10-12T00:42:28.890Z,327.27
2018-10-12T00:44:59.222Z,326.67
2018-10-12T00:47:29.542Z,315.52
2018-10-12T00:50:01.082Z,321.68
2018-10-12T00:52:31.439Z,317.57
2018-10-12T00:55:01.728Z,313.55
2018-10-12T00:57:32.747Z,308.68
2018-10-12T01:00:03.118Z,304.25
2018-10-12T01:02:33.508Z,299.12
2018-10-12T01:05:03.859Z,301.15
2018-10-12T01:07:34.294Z,294.77
2018-10-12T01:10:04.615Z,290.70
2018-10-12T01:12:36.478Z,290.73
2018-10-12T01:15:07.808Z,286.20
2018-10-12T01:17:38.563Z,285.38
2018-10-12T01:20:09.646Z,278.00
2018-10-12T01:22:40.105Z,276.00
2018-10-12T01:25:10.743Z,276.52
2018-10-12T01:27:41.074Z,270.67
2018-10-12T01:30:11.397Z,269.50
2018-10-12T01:32:47.614Z,269.98
2018-10-12T01:35:17.978Z,266.98
2018-10-12T01:37:48.343Z,262.20
2018-10-12T01:40:18.607Z,256.60
2018-10-12T01:42:48.874Z,256.68
2018-10-12T01:45:19.192Z,254.95
2018-10-12T01:47:49.466Z,246.87
2018-10-12T01:50:19.894Z,249.40
2018-10-12T01:52:50.323Z,249.30
2018-10-12T01:55:20.586Z,241.30
2018-10-12T01:57:50.946Z,243.42
2018-10-12T02:00:21.275Z,238.07
2018-10-12T02:02:51.582Z,235.53
2018-10-12T02:05:21.914Z,229.85
2018-10-12T02:07:52.238Z,227.90
2018-10-12T02:10:22.510Z,229.82
2018-10-12T02:12:52.778Z,223.20
2018-10-12T02:15:23.018Z,223.90
2018-10-12T02:17:53.300Z,220.52
2018-10-12T02:20:23.534Z,219.43
2018-10-12T02:22:53.814Z,218.48
2018-10-12T02:25:24.074Z,215.70
2018-10-12T02:27:54.384Z,213.55
2018-10-12T02:30:24.814Z,207.92
2018-10-12T02:32:55.082Z,205.18
2018-10-12T02:35:25.385Z,203.73
2018-10-12T02:37:55.643Z,204.68
2018-10-12T02:40:25.919Z,201.92
2018-10-12T02:42:56.241Z,195.95
2018-10-12T02:45:26.595Z,192.50
2018-10-12T02:47:57.046Z,191.82
2018-10-12T02:50:29.030Z,190.73
2018-10-12T02:52:59.386Z,188.25
2018-10-12T02:55:29.750Z,185.75
2018-10-12T02:58:00.035Z,180.87
2018-10-12T03:00:30.847Z,181.65
2018-10-12T03:03:01.106Z,181.22
2018-10-12T03:05:31.430Z,176.53
2018-10-12T03:08:02.311Z,177.85
2018-10-12T03:10:32.596Z,173.17
2018-10-12T03:13:02.902Z,171.95
2018-10-12T03:15:33.495Z,169.97
2018-10-12T03:18:03.766Z,169.00
2018-10-12T03:20:34.096Z,164.25
2018-10-12T03:23:04.346Z,161.82
2018-10-12T03:25:34.718Z,162.92
2018-10-12T03:28:26.239Z,159.75
2018-10-12T03:30:57.163Z,156.97
2018-10-12T03:33:28.877Z,156.63
2018-10-12T03:35:59.539Z,154.07
2018-10-12T03:38:29.840Z,154.90
2018-10-12T03:41:00.199Z,150.68
2018-10-12T03:43:30.871Z,148.53
2018-10-12T03:46:01.194Z,146.22
2018-10-12T03:48:31.449Z,147.22
2018-10-12T03:51:01.755Z,143.90
2018-10-12T03:53:32.168Z,142.30
2018-10-12T03:56:02.432Z,140.10
2018-10-12T03:58:32.719Z,139.37
2018-10-12T04:01:03.046Z,136.85
2018-10-12T04:03:33.414Z,139.50
2018-10-12T04:06:03.825Z,135.90
2018-10-12T04:08:34.107Z,135.00
2018-10-12T04:11:04.367Z,132.80
2018-10-12T04:13:34.662Z,130.82
2018-10-12T04:16:04.994Z,130.30
2018-10-12T04:18:35.306Z,127.30
2018-10-12T04:21:05.567Z,125.95
2018-10-12T04:23:36.288Z,124.55
2018-10-12T04:26:06.630Z,124.33
2018-10-12T04:28:37.895Z,123.92
2018-10-12T04:31:08.155Z,123.60
2018-10-12T04:33:38.490Z,120.72
2018-10-12T04:36:09.042Z,120.92
2018-10-12T04:41:19.648Z,118.20
2018-10-12T04:43:54.402Z,116.67
2018-10-12T04:46:36.504Z,117.17
2018-10-12T04:49:09.767Z,112.68
2018-10-12T04:51:52.587Z,112.32
2018-10-12T04:54:23.063Z,109.67
2018-10-12T04:56:53.654Z,110.48
2018-10-12T04:59:23.956Z,105.07
2018-10-12T05:01:54.328Z,106.67
2018-10-12T05:04:24.594Z,104.10
2018-10-12T05:06:54.851Z,106.07
2018-10-12T05:09:25.130Z,103.25
2018-10-12T05:11:55.458Z,104.87
2018-10-12T05:14:25.880Z,102.35
2018-10-12T05:16:56.660Z,101.30
2018-10-12T05:19:28.378Z,100.15
2018-10-12T05:21:58.738Z,96.20
2018-10-12T05:24:28.983Z,96.87
2018-10-12T05:26:59.317Z,95.75
2018-10-12T05:29:29.579Z,92.57
2018-10-12T05:31:59.871Z,92.78
2018-10-12T05:34:30.235Z,92.97
2018-10-12T05:37:01.135Z,91.42
2018-10-12T05:39:31.499Z,90.40
2018-10-12T05:42:01.751Z,88.65
2018-10-12T05:44:32.088Z,87.70
2018-10-12T05:47:02.407Z,85.35
2018-10-12T05:50:03.411Z,86.72
2018-10-12T05:52:35.115Z,86.25
2018-10-12T05:55:05.383Z,83.82
2018-10-12T05:57:40.490Z,84.30
2018-10-12T06:00:12.039Z,83.42
2018-10-12T06:02:42.362Z,81.17
2018-10-12T06:05:12.706Z,83.67
2018-10-12T06:07:42.967Z,80.75
2018-10-12T06:10:13.263Z,80.42
2018-10-12T06:12:43.527Z,77.92
2018-10-12T06:15:13.768Z,78.52
2018-10-12T06:17:44.043Z,75.80
2018-10-12T06:20:14.510Z,74.55
2018-10-12T06:22:44.911Z,73.57
2018-10-12T06:25:15.170Z,73.15
2018-10-12T06:27:45.431Z,73.15
2018-10-12T06:30:15.691Z,71.28
2018-10-12T06:32:46.196Z,71.72
2018-10-12T06:35:16.500Z,70.35
2018-10-12T06:37:46.843Z,67.32
2018-10-12T06:40:17.099Z,67.30
2018-10-12T06:42:47.371Z,65.62
2018-10-12T06:45:17.615Z,64.90
2018-10-12T06:47:47.870Z,66.53
2018-10-12T06:50:18.250Z,64.00
2018-10-12T06:52:48.594Z,62.30
2018-10-12T06:55:18.910Z,62.20
2018-10-12T06:57:49.174Z,61.65
2018-10-12T07:00:19.420Z,62.27
2018-10-12T07:02:49.826Z,60.88
2018-10-12T07:05:20.255Z,60.65
2018-10-12T07:07:50.650Z,59.53
2018-10-12T07:10:20.895Z,57.93
2018-10-12T07:12:51.189Z,57.73
2018-10-12T07:15:21.459Z,58.30
2018-10-12T07:17:51.718Z,56.18
2018-10-12T07:20:21.994Z,56.25
2018-10-12T07:22:52.268Z,54.80
2018-10-12T07:25:22.510Z,53.63
2018-10-12T07:27:53.031Z,53.70
2018-10-12T07:30:23.278Z,53.52
2018-10-12T07:32:53.563Z,51.40
2018-10-12T07:35:23.892Z,52.88
2018-10-12T07:37:54.250Z,51.68
2018-10-12T07:40:24.499Z,53.33
2018-10-12T07:42:55.035Z,50.80
2018-10-12T07:45:25.302Z,51.00
2018-10-12T07:47:55.684Z,49.20
2018-10-12T07:50:25.905Z,49.03
2018-10-12T07:52:56.187Z,57.08
2018-10-12T07:55:26.512Z,120.20
2018-10-12T07:57:56.783Z,94.47
2018-10-12T08:00:27.209Z,65.47
2018-10-12T08:02:57.500Z,48.70
2018-10-12T08:05:27.846Z,41.08
2018-10-12T08:07:58.171Z,33.70
2018-10-12T08:10:28.593Z,30.00
2018-10-12T08:12:58.886Z,24.70
2018-10-12T08:15:29.223Z,21.05
2018-10-12T08:17:59.525Z,21.48
2018-10-12T08:20:29.927Z,22.80
2018-10-12T08:23:00.606Z,21.73
2018-10-12T08:25:30.955Z,23.98
2018-10-12T08:28:01.216Z,18.60
2018-10-12T08:30:32.099Z,18.80
2018-10-12T08:33:02.570Z,31.55
2018-10-12T08:35:32.875Z,23.62
2018-10-12T08:38:03.254Z,44.63
2018-10-12T08:40:33.507Z,51.10
2018-10-12T08:43:03.882Z,38.48
2018-10-12T08:45:34.262Z,29.57
2018-10-12T08:48:04.479Z,22.70
2018-10-12T08:50:35.983Z,13.08
2018-10-12T08:53:06.339Z,8.50
2018-10-12T08:55:36.678Z,6.60
2018-10-12T08:58:06.967Z,6.22
2018-10-12T09:00:37.300Z,49.30
2018-10-12T09:03:07.840Z,55.58
2018-10-12T09:05:38.183Z,64.58
2018-10-12T09:08:08.505Z,41.20
2018-10-12T09:10:38.807Z,26.42
2018-10-12T09:13:09.119Z,19.77
2018-10-12T09:15:39.515Z,63.38
2018-10-12T09:18:09.870Z,42.30
2018-10-12T09:20:40.273Z,22.02
2018-10-12T09:23:10.546Z,21.12
2018-10-12T09:25:40.869Z,125.67
2018-10-12T09:28:11.198Z,149.93
2018-10-12T09:30:41.759Z,92.75
2018-10-12T09:33:12.015Z,44.77
2018-10-12T09:35:42.354Z,19.65
2018-10-12T09:38:12.599Z,12.20
2018-10-12T09:40:42.871Z,10.13
2018-10-12T09:43:13.116Z,8.53
2018-10-12T09:45:43.444Z,7.70
2018-10-12T09:48:13.675Z,7.80
2018-10-12T09:50:44.039Z,9.08
2018-10-12T09:53:14.307Z,8.38
2018-10-12T09:55:44.661Z,7.08
2018-10-12T09:58:14.859Z,6.78
2018-10-12T10:00:50.385Z,7.12
2018-10-12T10:03:25.935Z,15.13
2018-10-12T10:05:56.344Z,38.10
2018-10-12T10:08:26.807Z,31.45
2018-10-12T10:10:56.995Z,25.95
2018-10-12T10:13:27.352Z,18.30
2018-10-12T10:15:57.718Z,30.60
2018-10-12T10:18:27.983Z,24.77
2018-10-12T10:20:58.235Z,24.82
2018-10-12T10:23:28.659Z,36.15
2018-10-12T10:25:59.262Z,33.28
2018-10-12T10:28:29.686Z,29.67
2018-10-12T10:31:00.062Z,40.05
2018-10-12T10:33:30.378Z,28.25
2018-10-12T10:36:01.640Z,54.00
2018-10-12T10:38:31.610Z,48.52
2018-10-12T10:41:02.040Z,49.48
2018-10-12T10:43:32.375Z,40.23
2018-10-12T10:46:02.772Z,34.67
2018-10-12T10:48:39.735Z,26.77
2018-10-12T10:51:10.218Z,19.10
2018-10-12T10:53:40.993Z,14.00
2018-10-12T10:56:11.414Z,11.33
2018-10-12T10:58:41.663Z,9.50
2018-10-12T11:01:11.936Z,8.70
2018-10-12T11:03:42.311Z,7.95
2018-10-12T11:06:12.700Z,7.20
2018-10-12T11:08:42.995Z,7.30
2018-10-12T11:11:13.318Z,6.20
2018-10-12T11:13:43.675Z,5.80
2018-10-12T11:16:14.032Z,12.63
2018-10-12T11:18:44.584Z,19.62
2018-10-12T11:21:14.986Z,29.90
2018-10-12T11:23:45.375Z,27.07
2018-10-12T11:26:15.892Z,19.85
2018-10-12T11:28:46.604Z,17.65
2018-10-12T11:31:17.367Z,14.07
2018-10-12T11:33:47.798Z,12.70
2018-10-12T11:36:18.123Z,20.20
2018-10-12T11:38:48.463Z,32.88
2018-10-12T11:41:18.891Z,38.17
2018-10-12T11:43:49.698Z,37.93
2018-10-12T11:46:20.406Z,32.70
2018-10-12T11:48:51.057Z,29.70
2018-10-12T11:51:21.751Z,25.77
2018-10-12T11:53:52.433Z,23.20
2018-10-12T11:56:22.783Z,20.30
2018-10-12T11:58:53.163Z,16.87
2018-10-12T12:01:23.420Z,14.65
2018-10-12T12:03:53.693Z,14.78
2018-10-12T12:06:23.970Z,29.60
2018-10-12T12:08:54.275Z,33.83
2018-10-12T12:11:24.604Z,48.15
2018-10-12T12:13:55.020Z,47.30
2018-10-12T12:16:25.810Z,38.70
2018-10-12T12:18:56.104Z,30.23
2018-10-12T12:21:26.434Z,26.33
2018-10-12T12:23:56.757Z,20.68
2018-10-12T12:26:27.013Z,17.57
2018-10-12T12:28:57.290Z,14.50
2018-10-12T12:31:27.695Z,95.35
2018-10-12T12:33:57.972Z,101.35
2018-10-12T12:36:28.262Z,77.10
2018-10-12T12:38:58.514Z,55.23
2018-10-12T12:41:28.820Z,36.53
2018-10-12T12:43:59.147Z,21.60
2018-10-12T12:46:29.510Z,13.15
2018-10-12T12:49:00.215Z,10.00
2018-10-12T12:51:30.777Z,7.60
2018-10-12T12:54:01.215Z,7.10
2018-10-12T12:56:31.555Z,5.15
2018-10-12T12:59:01.929Z,4.72
2018-10-12T13:01:32.216Z,3.85
2018-10-12T13:04:02.571Z,4.05
2018-10-12T13:06:33.135Z,43.08
2018-10-12T13:09:04.943Z,43.42
2018-10-12T13:11:35.354Z,52.78
2018-10-12T13:14:05.710Z,51.63
2018-10-12T13:16:36.075Z,39.60
2018-10-12T13:19:06.368Z,34.10
2018-10-12T13:21:36.614Z,29.72
2018-10-12T13:24:06.947Z,26.77
2018-10-12T13:26:37.314Z,24.35
2018-10-12T13:29:08.062Z,20.25
2018-10-12T13:31:38.366Z,17.82
2018-10-12T13:34:08.859Z,16.97
2018-10-12T13:36:39.252Z,16.30
2018-10-12T13:39:12.631Z,16.32
2018-10-12T13:41:42.951Z,14.93
2018-10-12T13:44:13.283Z,14.60
2018-10-12T13:46:44.062Z,43.95
2018-10-12T13:49:15.278Z,61.58
2018-10-12T13:51:45.654Z,75.52
2018-10-12T13:54:16.985Z,71.20
2018-10-12T13:56:47.262Z,53.40
2018-10-12T13:59:17.668Z,41.37
2018-10-12T14:01:48.058Z,25.17
2018-10-12T14:04:18.565Z,19.82
2018-10-12T14:06:48.938Z,14.58
2018-10-12T14:09:19.196Z,11.40
2018-10-12T14:11:49.527Z,8.58
2018-10-12T14:14:19.834Z,6.65
2018-10-12T14:16:50.164Z,5.95
2018-10-12T14:19:21.349Z,4.42
2018-10-12T14:21:51.619Z,4.60
2018-10-12T14:24:22.028Z,4.60
2018-10-12T14:26:52.535Z,3.98
2018-10-12T14:29:22.864Z,3.60
2018-10-12T14:31:53.148Z,3.60
2018-10-12T14:34:23.580Z,2.60
2018-10-12T14:36:53.926Z,13.32
2018-10-12T14:39:24.247Z,38.65
2018-10-12T14:41:54.704Z,35.85
2018-10-12T14:44:25.235Z,29.18
2018-10-12T14:46:55.423Z,21.62
2018-10-12T14:49:25.926Z,17.00
2018-10-12T14:51:56.870Z,13.62
2018-10-12T14:54:27.123Z,14.13
2018-10-12T14:56:57.415Z,27.75
2018-10-12T14:59:27.678Z,35.78
2018-10-12T15:01:58.096Z,46.53
2018-10-12T15:04:28.394Z,47.73
2018-10-12T15:06:58.769Z,35.88
2018-10-12T15:09:29.135Z,31.15
2018-10-12T15:11:59.470Z,23.85
2018-10-12T15:14:53.050Z,19.35
2018-10-12T15:17:23.359Z,15.90
2018-10-12T15:19:53.690Z,13.30
2018-10-12T15:22:23.998Z,23.87
2018-10-12T15:24:54.295Z,39.70
2018-10-12T15:27:24.571Z,37.40
2018-10-12T15:29:54.887Z,55.98
2018-10-12T15:32:26.223Z,67.37
2018-10-12T15:34:57.090Z,66.97
2018-10-12T15:37:27.379Z,60.38
2018-10-12T15:39:57.720Z,51.60
2018-10-12T15:42:27.979Z,46.18
2018-10-12T15:44:58.245Z,46.85
2018-10-12T15:47:28.494Z,41.35
2018-10-12T15:49:58.791Z,40.98
2018-10-12T15:52:29.119Z,37.60
2018-10-12T15:54:59.506Z,32.35
2018-10-12T15:57:31.786Z,29.05
2018-10-12T16:00:02.051Z,26.62
2018-10-12T16:02:32.659Z,24.45
2018-10-12T16:05:04.104Z,97.30
2018-10-12T16:07:34.479Z,83.87
2018-10-12T16:10:04.799Z,56.85
2018-10-12T16:12:36.215Z,46.68
2018-10-12T16:15:06.954Z,45.05
2018-10-12T16:17:37.371Z,36.88
2018-10-12T16:20:07.731Z,94.05
2018-10-12T16:22:38.147Z,65.87
2018-10-12T16:26:03.730Z,62.95
2018-10-12T16:28:34.479Z,57.60
2018-10-12T16:31:05.259Z,51.90
2018-10-12T16:33:35.657Z,57.50
2018-10-12T16:36:06.038Z,38.83
2018-10-12T16:38:36.452Z,30.48
2018-10-12T16:41:07.446Z,23.92
2018-10-12T16:43:37.806Z,16.87
2018-10-12T16:46:11.075Z,11.97
2018-10-12T16:48:41.402Z,8.30
2018-10-12T16:51:11.707Z,6.15
2018-10-12T16:53:42.071Z,4.55
2018-10-12T16:56:12.424Z,5.35
2018-10-12T16:58:42.720Z,5.87
2018-10-12T17:01:13.030Z,4.95
2018-10-12T17:03:43.342Z,4.55
2018-10-12T17:06:13.732Z,3.70
2018-10-12T17:08:44.088Z,3.62
2018-10-12T17:11:18.463Z,2.90
2018-10-12T17:13:48.843Z,3.02
2018-10-12T17:16:19.162Z,2.50
2018-10-12T17:18:49.424Z,2.42
2018-10-12T17:21:19.767Z,2.08
2018-10-12T17:23:50.194Z,2.33
2018-10-12T17:26:20.576Z,2.08
2018-10-12T17:28:50.902Z,2.83
2018-10-12T17:31:21.212Z,3.10
2018-10-12T17:33:51.531Z,3.50
2018-10-12T17:36:21.883Z,3.30
2018-10-12T17:38:53.666Z,3.33
2018-10-12T17:41:24.007Z,2.72
2018-10-12T17:43:54.430Z,2.70
2018-10-12T17:46:24.716Z,12.10
2018-10-12T17:48:55.689Z,37.35
2018-10-12T17:51:26.227Z,33.65
2018-10-12T17:53:56.670Z,28.15
2018-10-12T17:56:27.195Z,19.98
2018-10-12T17:58:57.602Z,12.18
2018-10-12T18:01:28.279Z,8.73
2018-10-12T18:03:58.710Z,6.72
2018-10-12T18:06:29.146Z,5.50
2018-10-12T18:08:59.505Z,4.58
2018-10-12T18:11:29.731Z,4.28
2018-10-12T18:14:00.383Z,4.08
2018-10-12T18:16:37.686Z,4.87
2018-10-12T18:19:08.326Z,4.55
2018-10-12T18:21:38.706Z,4.45
2018-10-12T18:24:09.094Z,4.03
2018-10-12T18:26:40.033Z,3.62
2018-10-12T18:29:10.491Z,3.83
2018-10-12T18:31:40.888Z,3.62
2018-10-12T18:34:11.146Z,3.72
2018-10-12T18:36:41.436Z,4.80
2018-10-12T18:39:12.013Z,15.55
2018-10-12T18:41:42.306Z,19.25
2018-10-12T18:44:12.594Z,26.62
2018-10-12T18:46:42.871Z,30.50
2018-10-12T18:49:13.147Z,35.03
2018-10-12T18:51:43.619Z,38.25
2018-10-12T18:54:13.991Z,43.08
2018-10-12T18:56:44.454Z,45.52
2018-10-12T18:59:14.799Z,45.33
2018-10-12T19:01:45.464Z,45.80
2018-10-12T19:04:19.569Z,46.40
2018-10-12T19:06:49.888Z,59.63
2018-10-12T19:09:21.125Z,55.35
2018-10-12T19:11:51.935Z,56.73
2018-10-12T19:14:22.284Z,60.98
2018-10-12T19:16:53.670Z,68.12
2018-10-12T19:19:24.872Z,75.70
2018-10-12T19:21:55.177Z,83.37
2018-10-12T19:24:25.561Z,93.45
2018-10-12T19:26:55.955Z,99.00
2018-10-12T19:29:26.626Z,100.38
2018-10-12T19:31:57.206Z,97.35
2018-10-12T19:34:27.515Z,99.65
2018-10-12T19:36:57.913Z,98.45
2018-10-12T19:39:28.427Z,99.75
2018-10-12T19:41:58.873Z,101.47
2018-10-12T19:44:30.316Z,98.07
2018-10-12T19:47:00.852Z,106.25
2018-10-12T19:49:31.263Z,127.47
2018-10-12T19:52:01.780Z,126.15
2018-10-12T19:54:32.377Z,133.85
2018-10-12T19:57:02.967Z,140.40
2018-10-12T19:59:33.463Z,142.35
2018-10-12T20:02:03.962Z,144.62
2018-10-12T20:04:34.959Z,145.22
2018-10-12T20:07:05.361Z,144.28
2018-10-12T20:09:35.885Z,144.32
2018-10-12T20:12:06.456Z,142.72
2018-10-12T20:14:36.899Z,141.90
2018-10-12T20:17:07.308Z,140.20
2018-10-12T20:19:37.780Z,136.77
2018-10-12T20:22:10.999Z,133.95
2018-10-12T20:24:41.696Z,136.18
2018-10-12T20:27:12.070Z,133.40
2018-10-12T20:29:42.535Z,137.20
2018-10-12T20:32:12.903Z,138.45
2018-10-12T20:34:43.240Z,139.40
2018-10-12T20:37:13.620Z,143.07
2018-10-12T20:39:44.455Z,145.77
2018-10-12T20:42:14.758Z,150.38
2018-10-12T20:44:45.164Z,154.80
2018-10-12T20:47:15.472Z,160.97
2018-10-12T20:49:45.813Z,170.17
2018-10-12T20:52:16.663Z,185.37
2018-10-12T20:54:47.091Z,194.40
2018-10-12T20:57:18.636Z,196.18
2018-10-12T20:59:49.072Z,194.60
2018-10-12T21:02:19.524Z,188.60
2018-10-12T21:04:50.019Z,192.22
2018-10-12T21:07:20.291Z,180.85
2018-10-12T21:09:50.795Z,183.27
2018-10-12T21:12:21.207Z,184.10
2018-10-12T21:14:51.583Z,153.70
2018-10-12T21:17:21.907Z,147.10
2018-10-12T21:19:53.209Z,146.02
2018-10-12T21:22:23.582Z,146.13
2018-10-12T21:24:53.995Z,146.50
2018-10-12T21:27:24.362Z,145.90
2018-10-12T21:29:54.671Z,144.10
2018-10-12T21:32:25.538Z,146.20
2018-10-12T21:34:56.008Z,149.80
2018-10-12T21:37:26.278Z,155.40
2018-10-12T21:39:56.694Z,171.43
2018-10-12T21:42:26.999Z,193.80
2018-10-12T21:44:57.307Z,214.55
2018-10-12T21:47:27.612Z,220.40
2018-10-12T21:49:58.083Z,306.60
2018-10-12T21:52:28.378Z,342.25
2018-10-12T21:54:58.735Z,294.80
2018-10-12T21:57:29.199Z,269.95
2018-10-12T21:59:59.633Z,256.90
2018-10-12T22:02:29.910Z,248.47
2018-10-12T22:05:00.422Z,247.80
2018-10-12T22:07:30.803Z,258.85
2018-10-12T22:10:01.279Z,270.42
2018-10-12T22:12:31.611Z,282.62
2018-10-12T22:15:01.997Z,289.27
2018-10-12T22:17:33.547Z,281.70
2018-10-12T22:20:03.939Z,280.40
2018-10-12T22:22:34.610Z,278.18
2018-10-12T22:25:04.981Z,270.45
2018-10-12T22:27:35.340Z,268.10
2018-10-12T22:30:06.738Z,268.55
2018-10-12T22:32:37.134Z,262.20
2018-10-12T22:35:07.567Z,254.10
2018-10-12T22:37:37.922Z,251.27
2018-10-12T22:40:08.275Z,248.80
2018-10-12T22:42:38.589Z,245.65
2018-10-12T22:49:28.309Z,243.60
2018-10-12T22:51:58.607Z,231.53
2018-10-12T22:54:28.944Z,227.93
2018-10-12T22:56:59.847Z,224.05
2018-10-12T22:59:30.202Z,216.88
2018-10-12T23:02:00.562Z,215.82
2018-10-12T23:04:30.946Z,211.95
2018-10-12T23:07:01.257Z,210.93
2018-10-12T23:09:31.603Z,203.77
2018-10-12T23:12:01.962Z,202.53
2018-10-12T23:14:32.346Z,203.18
2018-10-12T23:17:02.691Z,201.20
2018-10-12T23:19:33.006Z,211.62
2018-10-12T23:22:04.071Z,222.78
2018-10-12T23:24:34.356Z,233.63
2018-10-12T23:27:04.634Z,237.82
2018-10-12T23:29:34.891Z,247.88
2018-10-12T23:32:05.194Z,253.52
2018-10-12T23:34:35.587Z,264.10
2018-10-12T23:37:06.087Z,269.05
2018-10-12T23:39:36.393Z,270.70
2018-10-12T23:42:06.687Z,275.68
2018-10-12T23:44:37.052Z,282.23
2018-10-12T23:47:07.621Z,276.95
2018-10-12T23:49:37.898Z,283.27
2018-10-12T23:52:08.475Z,274.32
2018-10-12T23:54:38.770Z,274.02
2018-10-12T23:57:09.403Z,267.95
2018-10-12T23:59:39.750Z,258.50
